createdAt,value
2023-01-29T00:00:00.834Z,21.6
2023-01-29T00:05:13.125Z,21.6
2023-01-29T00:10:01.376Z,21.5
2023-01-29T00:15:01.752Z,21.6
2023-01-29T00:20:02.232Z,21.6
2023-01-29T00:25:02.749Z,21.6
2023-01-29T00:30:02.605Z,21.6
2023-01-29T00:35:01.575Z,21.6
2023-01-29T00:40:01.081Z,21.6
2023-01-29T00:45:01.474Z,21.6
2023-01-29T00:50:01.801Z,21.6
2023-01-29T00:55:01.857Z,21.7
2023-01-29T01:00:01.100Z,21.7
2023-01-29T01:05:01.509Z,21.7
2023-01-29T01:10:02.149Z,21.7
2023-01-29T01:15:01.136Z,21.7
2023-01-29T01:20:01.447Z,21.7
2023-01-29T01:25:02.057Z,21.7
2023-01-29T01:30:01.399Z,21.7
2023-01-29T01:35:01.930Z,21.7
2023-01-29T01:40:01.989Z,21.7
2023-01-29T01:45:01.290Z,21.7
2023-01-29T01:50:01.002Z,21.6
2023-01-29T01:55:02.378Z,21.7
2023-01-29T02:00:01.282Z,21.7
2023-01-29T02:05:01.099Z,21.7
2023-01-29T02:10:01.239Z,21.8
2023-01-29T02:15:01.057Z,21.8
2023-01-29T02:20:01.303Z,21.8
2023-01-29T02:25:01.203Z,21.7
2023-01-29T02:30:01.460Z,21.7
2023-01-29T02:35:01.949Z,21.3
2023-01-29T02:40:00.463Z,21.0
2023-01-29T02:45:01.031Z,20.5
2023-01-29T02:50:01.066Z,20.1
2023-01-29T02:55:01.439Z,19.7
2023-01-29T03:00:00.878Z,19.4
2023-01-29T03:05:01.012Z,19.3
2023-01-29T03:10:00.944Z,19.2
2023-01-29T03:15:01.523Z,19.3
2023-01-29T03:20:01.553Z,19.4
2023-01-29T03:25:01.101Z,19.5
2023-01-29T03:30:01.014Z,19.5
2023-01-29T03:35:01.081Z,19.6
2023-01-29T03:40:01.466Z,19.7
2023-01-29T03:45:01.049Z,19.8
2023-01-29T03:50:02.209Z,19.9
2023-01-29T03:55:01.057Z,19.9
2023-01-29T04:00:01.369Z,20.0
2023-01-29T04:05:01.289Z,20.1
2023-01-29T04:10:01.716Z,20.2
2023-01-29T04:15:02.346Z,20.2
2023-01-29T04:20:01.066Z,20.3
2023-01-29T04:25:01.937Z,20.4
2023-01-29T04:30:01.517Z,20.4
2023-01-29T04:35:01.330Z,20.5
2023-01-29T04:40:01.085Z,20.5
2023-01-29T04:45:00.564Z,20.6
2023-01-29T04:50:00.948Z,20.6
2023-01-29T04:55:01.162Z,20.7
2023-01-29T05:00:04.886Z,20.7
2023-01-29T05:05:01.077Z,20.8
2023-01-29T05:10:01.583Z,20.8
2023-01-29T05:15:01.221Z,20.9
2023-01-29T05:20:01.245Z,20.9
2023-01-29T05:25:01.041Z,20.9
2023-01-29T05:30:01.044Z,21.0
2023-01-29T05:35:01.600Z,21.0
2023-01-29T05:40:01.303Z,21.0
2023-01-29T05:45:01.380Z,21.0
2023-01-29T05:50:01.847Z,21.0
2023-01-29T05:55:00.795Z,21.0
2023-01-29T06:00:01.311Z,21.0
2023-01-29T06:05:01.458Z,21.0
2023-01-29T06:10:01.434Z,21.1
2023-01-29T06:15:01.044Z,21.1
2023-01-29T06:20:01.080Z,21.1
2023-01-29T06:25:01.008Z,21.1
2023-01-29T06:30:01.047Z,21.1
2023-01-29T06:35:01.506Z,21.1
2023-01-29T06:40:01.028Z,21.1
2023-01-29T06:45:01.027Z,21.1
2023-01-29T06:50:01.141Z,21.2
2023-01-29T06:55:00.541Z,21.1
2023-01-29T07:00:02.095Z,21.2
2023-01-29T07:05:01.066Z,21.2
2023-01-29T07:10:01.071Z,21.2
2023-01-29T07:15:01.731Z,21.2
2023-01-29T07:20:01.099Z,21.2
2023-01-29T07:25:01.804Z,21.2
2023-01-29T07:30:00.457Z,21.2
2023-01-29T07:35:01.279Z,21.2
2023-01-29T07:40:01.016Z,21.2
2023-01-29T07:45:00.973Z,21.2
2023-01-29T07:50:01.076Z,21.2
2023-01-29T07:55:01.021Z,21.3
2023-01-29T08:00:01.062Z,21.3
2023-01-29T08:05:01.224Z,21.3
2023-01-29T08:10:02.831Z,21.3
2023-01-29T08:15:01.852Z,21.4
2023-01-29T08:20:01.278Z,21.4
2023-01-29T08:25:08.112Z,21.4
2023-01-29T08:30:01.359Z,21.4
2023-01-29T08:35:01.025Z,21.5
2023-01-29T08:40:00.537Z,21.5
2023-01-29T08:45:01.032Z,21.5
2023-01-29T08:50:01.254Z,21.5
2023-01-29T08:55:01.461Z,21.5
2023-01-29T09:00:01.861Z,21.5
2023-01-29T09:05:01.150Z,21.6
2023-01-29T09:10:03.403Z,21.6
2023-01-29T09:15:01.437Z,21.6
2023-01-29T09:20:01.304Z,21.7
2023-01-29T09:25:01.116Z,21.7
2023-01-29T09:30:01.037Z,21.7
2023-01-29T09:35:01.559Z,21.7
2023-01-29T09:40:02.116Z,21.7
2023-01-29T09:45:01.262Z,21.7
2023-01-29T09:50:01.003Z,21.8
2023-01-29T09:55:01.644Z,21.7
2023-01-29T10:00:01.101Z,21.8
2023-01-29T10:05:01.040Z,21.8
2023-01-29T10:10:02.249Z,21.8
2023-01-29T10:15:00.978Z,21.8
2023-01-29T10:20:01.480Z,21.8
2023-01-29T10:25:01.855Z,21.8
2023-01-29T10:30:01.006Z,21.9
2023-01-29T10:35:01.308Z,21.9
2023-01-29T10:40:02.981Z,21.9
2023-01-29T10:45:01.668Z,21.9
2023-01-29T10:50:01.237Z,21.9
2023-01-29T10:55:01.873Z,21.9
2023-01-29T11:00:00.455Z,21.9
2023-01-29T11:05:02.028Z,22.0
2023-01-29T11:10:04.352Z,22.0
2023-01-29T11:15:02.210Z,22.0
2023-01-29T11:20:01.477Z,22.0
2023-01-29T11:25:01.040Z,22.0
2023-01-29T11:30:02.286Z,22.0
2023-01-29T11:35:01.341Z,22.0
2023-01-29T11:40:02.392Z,22.0
2023-01-29T11:45:01.007Z,22.0
2023-01-29T11:50:02.299Z,22.0
2023-01-29T11:55:01.019Z,21.9
2023-01-29T12:00:01.019Z,21.9
2023-01-29T12:05:01.313Z,22.0
2023-01-29T12:10:01.332Z,22.0
2023-01-29T12:15:01.010Z,22.0
2023-01-29T12:20:01.003Z,22.0
2023-01-29T12:25:01.269Z,22.0
2023-01-29T12:30:01.479Z,22.0
2023-01-29T12:35:01.588Z,22.0
2023-01-29T12:40:02.585Z,22.0
2023-01-29T12:45:01.283Z,22.0
2023-01-29T12:50:01.052Z,22.0
2023-01-29T12:55:01.848Z,22.0
2023-01-29T13:00:01.312Z,22.0
2023-01-29T13:05:01.749Z,22.0
2023-01-29T13:10:02.545Z,22.0
2023-01-29T13:15:01.466Z,22.0
2023-01-29T13:20:01.626Z,22.0
2023-01-29T13:25:05.296Z,21.9
2023-01-29T13:30:01.311Z,21.8
2023-01-29T13:35:01.053Z,21.8
2023-01-29T13:40:01.906Z,21.7
2023-01-29T13:45:01.069Z,21.7
2023-01-29T13:50:01.196Z,21.5
2023-01-29T13:55:01.005Z,21.5
2023-01-29T14:00:01.038Z,21.5
2023-01-29T14:05:01.088Z,21.4
2023-01-29T14:10:01.025Z,21.4
2023-01-29T14:15:01.113Z,21.3
2023-01-29T14:20:01.272Z,21.3
2023-01-29T14:25:01.089Z,21.3
2023-01-29T14:30:01.701Z,21.0
2023-01-29T14:35:01.012Z,20.9
2023-01-29T14:40:01.093Z,20.8
2023-01-29T14:45:02.250Z,20.9
2023-01-29T14:50:01.316Z,21.0
2023-01-29T14:55:01.473Z,21.0
2023-01-29T15:00:02.674Z,21.1
2023-01-29T15:05:02.642Z,21.2
2023-01-29T15:10:21.288Z,21.2
2023-01-29T15:15:02.410Z,21.4
2023-01-29T15:20:02.052Z,21.4
2023-01-29T15:25:01.244Z,21.5
2023-01-29T15:30:01.234Z,21.5
2023-01-29T15:35:02.299Z,21.5
2023-01-29T15:40:01.392Z,21.5
2023-01-29T15:45:01.062Z,21.6
2023-01-29T15:50:01.406Z,21.6
2023-01-29T15:55:01.262Z,21.7
2023-01-29T16:00:01.123Z,21.7
2023-01-29T16:05:02.237Z,21.7
2023-01-29T16:10:00.548Z,21.7
2023-01-29T16:15:01.352Z,21.8
2023-01-29T16:20:01.145Z,21.8
2023-01-29T16:25:01.044Z,21.8
2023-01-29T16:30:01.278Z,21.8
2023-01-29T16:35:01.524Z,21.8
2023-01-29T16:40:02.228Z,21.8
2023-01-29T16:45:02.223Z,21.9
2023-01-29T16:50:02.012Z,21.8
2023-01-29T16:55:01.325Z,21.9
2023-01-29T17:00:01.234Z,21.9
2023-01-29T17:05:02.241Z,21.9
2023-01-29T17:10:01.247Z,21.9
2023-01-29T17:15:01.415Z,22.0
2023-01-29T17:20:01.108Z,22.0
2023-01-29T17:25:01.994Z,22.0
2023-01-29T17:30:01.108Z,22.0
2023-01-29T17:35:01.493Z,22.0
2023-01-29T17:40:05.367Z,22.0
2023-01-29T17:45:01.265Z,22.1
2023-01-29T17:50:02.150Z,22.1
2023-01-29T17:55:01.256Z,22.1
2023-01-29T18:00:02.621Z,22.1
2023-01-29T18:05:01.763Z,22.1
2023-01-29T18:10:01.787Z,22.1
2023-01-29T18:15:01.076Z,22.2
2023-01-29T18:20:01.204Z,22.1
2023-01-29T18:25:01.074Z,22.1
2023-01-29T18:30:01.191Z,22.2
2023-01-29T18:35:01.011Z,22.2
2023-01-29T18:40:01.901Z,22.2
2023-01-29T18:45:01.065Z,22.2
2023-01-29T18:50:01.019Z,22.3
2023-01-29T18:55:01.907Z,22.2
2023-01-29T19:00:01.253Z,22.3
2023-01-29T19:05:00.504Z,22.3
2023-01-29T19:10:01.243Z,22.3
2023-01-29T19:20:01.007Z,22.4
2023-01-29T19:25:01.965Z,22.4
2023-01-29T19:30:01.079Z,22.4
2023-01-29T19:35:00.502Z,22.4
2023-01-29T19:40:01.304Z,22.4
2023-01-29T19:45:01.285Z,22.4
2023-01-29T19:50:02.414Z,22.4
2023-01-29T19:55:01.098Z,22.5
2023-01-29T20:00:01.262Z,22.5
2023-01-29T20:05:01.274Z,22.5
2023-01-29T20:10:01.508Z,22.5
2023-01-29T20:15:01.060Z,22.5
2023-01-29T20:20:01.069Z,22.5
2023-01-29T20:25:01.943Z,22.5
2023-01-29T20:30:01.271Z,22.5
2023-01-29T20:35:02.186Z,22.5
2023-01-29T20:40:01.090Z,22.5
2023-01-29T20:45:01.732Z,22.5
2023-01-29T20:50:01.090Z,22.5
2023-01-29T20:55:01.096Z,22.5
2023-01-29T21:00:01.676Z,22.5
2023-01-29T21:05:02.101Z,22.5
2023-01-29T21:10:01.239Z,22.5
2023-01-29T21:15:01.247Z,22.5
2023-01-29T21:20:02.860Z,22.5
2023-01-29T21:25:01.772Z,22.5
2023-01-29T21:30:01.412Z,22.5
2023-01-29T21:35:01.905Z,22.5
2023-01-29T21:40:01.355Z,22.5
2023-01-29T21:45:01.873Z,22.5
2023-01-29T21:50:00.987Z,22.5
2023-01-29T21:55:02.114Z,22.5
2023-01-29T22:00:01.113Z,22.6
2023-01-29T22:05:19.598Z,22.6
2023-01-29T22:10:01.961Z,22.6
2023-01-29T22:15:01.088Z,22.5
2023-01-29T22:20:01.194Z,22.6
2023-01-29T22:25:01.015Z,22.6
2023-01-29T22:30:01.751Z,22.5
2023-01-29T22:35:00.978Z,22.6
2023-01-29T22:40:01.585Z,22.6
2023-01-29T22:45:01.285Z,22.6
2023-01-29T22:50:01.346Z,22.6
2023-01-29T22:55:01.291Z,22.5
2023-01-29T23:00:01.045Z,22.6
2023-01-29T23:05:01.436Z,22.6
2023-01-29T23:10:01.325Z,22.5
2023-01-29T23:15:01.028Z,22.5
2023-01-29T23:20:00.992Z,22.5
2023-01-29T23:25:01.441Z,22.6
2023-01-29T23:30:01.058Z,22.6
2023-01-29T23:35:01.015Z,22.6
2023-01-29T23:40:01.522Z,22.6
2023-01-29T23:45:00.506Z,22.6
2023-01-29T23:50:02.127Z,22.5
2023-01-29T23:55:01.490Z,22.6
